Time;durP1;ratioP1;P1;durP2;ratioP2;P2;SDS_P1;SDS_P2;PMS_P1;PMS_P2;Temp;Humidity;BMP_temperature;BMP_pressure;BME280_temperature;BME280_humidity;BME280_pressure;Samples;Min_cycle;Max_cycle;Signal;HPM_P1;HPM_P2
2022/07/25 00:03:39;;;;;;;8.67;7.17;;;22.70;69.00;;;;;;21088075;28;20213;-67
2022/07/25 00:13:43;;;;;;;9.00;7.30;;;22.50;69.40;;;;;;21090281;28;20712;-68
2022/07/25 00:23:45;;;;;;;11.37;7.00;;;22.40;70.10;;;;;;21026777;28;20210;-64
2022/07/25 00:33:47;;;;;;;9.57;7.47;;;22.30;70.50;;;;;;21004147;28;20569;-67
2022/07/25 00:43:48;;;;;;;9.53;6.73;;;22.20;71.10;;;;;;20985930;28;20733;-67
2022/07/25 00:53:50;;;;;;;10.00;7.13;;;22.00;71.70;;;;;;21002984;28;20249;-67
2022/07/25 01:03:52;;;;;;;9.60;8.07;;;21.90;72.30;;;;;;21001803;28;20772;-66
2022/07/25 01:13:54;;;;;;;11.93;7.87;;;21.90;72.70;;;;;;21001240;28;20235;-66
2022/07/25 01:23:55;;;;;;;11.47;8.00;;;21.80;73.30;;;;;;21000846;28;20210;-64
2022/07/25 01:33:57;;;;;;;10.43;7.30;;;21.70;73.90;;;;;;20999611;28;20228;-67
2022/07/25 01:43:59;;;;;;;11.90;7.47;;;21.60;74.70;;;;;;20998863;28;20807;-64
2022/07/25 01:54:00;;;;;;;11.67;7.67;;;21.50;75.20;;;;;;20997641;28;20247;-63
2022/07/25 02:04:03;;;;;;;11.20;8.30;;;21.40;75.60;;;;;;20997203;28;20218;-67
2022/07/25 02:14:06;;;;;;;10.23;7.83;;;21.40;75.90;;;;;;20996663;28;20296;-66
2022/07/25 02:24:09;;;;;;;8.30;7.30;;;21.40;76.10;;;;;;21008690;28;20210;-66
2022/07/25 02:34:11;;;;;;;9.30;7.50;;;21.30;77.20;;;;;;20993801;28;20269;-66
2022/07/25 02:44:13;;;;;;;11.10;7.93;;;21.20;76.80;;;;;;20995089;28;20237;-66
2022/07/25 02:54:14;;;;;;;9.10;7.80;;;21.10;77.40;;;;;;20995198;28;20780;-69
2022/07/25 03:04:17;;;;;;;9.63;8.10;;;21.10;78.10;;;;;;21003556;28;20230;-64
2022/07/25 03:14:20;;;;;;;10.30;7.50;;;21.00;78.80;;;;;;21010890;28;20245;-65
2022/07/25 03:24:22;;;;;;;10.60;8.53;;;20.90;79.50;;;;;;21010362;28;20209;-65
2022/07/25 03:34:24;;;;;;;11.13;7.70;;;20.80;80.10;;;;;;21009268;28;20237;-63
2022/07/25 03:44:26;;;;;;;10.77;7.67;;;20.80;80.60;;;;;;21008262;28;20881;-63
2022/07/25 03:54:27;;;;;;;8.63;7.77;;;20.70;80.90;;;;;;21007907;28;20234;-64
2022/07/25 04:04:29;;;;;;;8.63;7.70;;;20.70;81.10;;;;;;21006862;28;20216;-67
2022/07/25 04:14:31;;;;;;;12.10;8.20;;;20.50;81.40;;;;;;21005281;28;20237;-64
2022/07/25 04:24:33;;;;;;;8.90;8.00;;;20.40;81.70;;;;;;21007567;28;20199;-65
2022/07/25 04:34:34;;;;;;;10.57;8.33;;;20.40;82.00;;;;;;21053605;28;20592;-63
2022/07/25 04:44:36;;;;;;;14.57;8.10;;;20.40;82.30;;;;;;21078471;28;20238;-65
2022/07/25 04:54:38;;;;;;;15.80;8.83;;;20.40;82.50;;;;;;21086084;28;20692;-64
2022/07/25 05:04:39;;;;;;;18.03;10.57;;;20.40;83.30;;;;;;21085056;28;20207;-69
2022/07/25 05:14:46;;;;;;;26.83;9.77;;;20.70;83.40;;;;;;21084703;28;20240;-69
2022/07/25 05:24:47;;;;;;;18.30;9.57;;;20.90;83.20;;;;;;21027672;28;20206;-70
2022/07/25 05:34:49;;;;;;;28.20;15.17;;;21.10;83.10;;;;;;20998133;28;20325;-72
2022/07/25 05:44:51;;;;;;;25.60;9.30;;;21.30;82.90;;;;;;20997862;28;20242;-72
2022/07/25 05:54:53;;;;;;;35.43;12.23;;;21.50;82.50;;;;;;20997174;28;20238;-72
2022/07/25 06:04:54;;;;;;;20.77;9.80;;;21.80;81.80;;;;;;21085099;28;20209;-73
2022/07/25 06:14:56;;;;;;;15.53;9.63;;;22.00;81.20;;;;;;21161983;28;20239;-72
2022/07/25 06:25:03;;;;;;;15.37;9.90;;;22.30;80.20;;;;;;21162250;28;20564;-73
2022/07/25 06:35:05;;;;;;;14.63;9.10;;;22.60;79.30;;;;;;21143508;28;20256;-73
2022/07/25 06:45:09;;;;;;;18.23;9.60;;;22.90;78.50;;;;;;21161284;28;20238;-72
2022/07/25 06:55:13;;;;;;;18.87;10.07;;;23.30;77.90;;;;;;21160987;28;20241;-73
2022/07/25 07:05:15;;;;;;;17.10;9.07;;;23.60;77.10;;;;;;21159322;28;20658;-72
2022/07/25 07:15:17;;;;;;;19.43;8.97;;;24.00;76.70;;;;;;21159612;28;20237;-72
2022/07/25 07:25:20;;;;;;;12.30;8.77;;;24.40;76.20;;;;;;21160153;28;20216;-72
2022/07/25 07:35:24;;;;;;;10.93;8.50;;;24.80;75.80;;;;;;21159354;28;20242;-72
2022/07/25 07:45:29;;;;;;;10.73;7.93;;;25.20;75.30;;;;;;21158942;28;20234;-71
2022/07/25 07:55:42;;;;;;;15.67;11.00;;;25.50;74.50;;;;;;21173573;28;20251;-72
2022/07/25 08:05:45;;;;;;;20.20;10.77;;;25.90;73.80;;;;;;21063433;28;20207;-73
2022/07/25 08:15:50;;;;;;;12.87;8.70;;;26.30;73.20;;;;;;21001553;28;20245;-73
2022/07/25 08:25:52;;;;;;;9.63;8.50;;;26.70;72.40;;;;;;21003654;28;20242;-72
2022/07/25 08:35:57;;;;;;;17.80;8.90;;;27.00;71.40;;;;;;21002050;28;20593;-74
2022/07/25 08:46:00;;;;;;;11.23;8.63;;;27.40;70.10;;;;;;20945610;28;20242;-72
2022/07/25 08:56:06;;;;;;;11.73;7.10;;;27.90;68.40;;;;;;20918610;28;20726;-73
2022/07/25 09:06:20;;;;;;;15.07;9.40;;;28.30;65.80;;;;;;20916908;28;20215;-74
2022/07/25 09:16:29;;;;;;;12.13;7.55;;;28.70;63.30;;;;;;20916490;28;20594;-73
2022/07/25 09:26:44;;;;;;;12.00;7.25;;;29.10;60.70;;;;;;20916021;28;20390;-72
2022/07/25 09:36:54;;;;;;;11.43;7.45;;;29.50;57.70;;;;;;20914635;28;20674;-74
2022/07/25 09:46:59;;;;;;;16.50;7.68;;;29.80;56.50;;;;;;20977014;28;20239;-73
2022/07/25 09:57:01;;;;;;;7.63;6.80;;;30.00;55.70;;;;;;20997063;28;20215;-70
2022/07/25 10:07:13;;;;;;;22.65;16.27;;;30.20;53.70;;;;;;21047521;28;20234;-73
2022/07/25 10:17:20;;;;;;;9.77;6.47;;;30.40;52.80;;;;;;21078219;28;20202;-72
2022/07/25 10:27:23;;;;;;;7.85;6.18;;;30.60;51.90;;;;;;21078044;28;20344;-72
2022/07/25 10:37:28;;;;;;;7.40;5.70;;;30.80;50.70;;;;;;21077794;28;20210;-73
2022/07/25 10:47:37;;;;;;;6.28;5.35;;;31.00;49.10;;;;;;21076805;28;20250;-72
2022/07/25 10:57:38;;;;;;;7.55;6.25;;;31.10;48.10;;;;;;21076657;28;20207;-72
2022/07/25 11:08:00;;;;;;;8.25;5.78;;;31.20;48.20;;;;;;21076576;28;20241;-73
2022/07/25 11:18:37;;;;;;;5.78;4.93;;;31.20;47.70;;;;;;21075604;28;20600;-73
2022/07/25 11:28:47;;;;;;;7.75;5.80;;;31.40;46.90;;;;;;21090044;28;20240;-72
2022/07/25 11:38:49;;;;;;;7.03;5.57;;;31.50;45.70;;;;;;21092626;28;20209;-72
2022/07/25 11:48:50;;;;;;;6.20;5.32;;;31.70;45.60;;;;;;21090953;28;20245;-72
2022/07/25 11:58:57;;;;;;;7.95;5.93;;;32.00;45.40;;;;;;21090053;28;20205;-72
2022/07/25 12:09:09;;;;;;;6.53;5.80;;;32.00;45.10;;;;;;21001889;28;20235;-72
2022/07/25 12:19:20;;;;;;;10.50;6.60;;;32.10;45.50;;;;;;21005009;28;20230;-73
2022/07/25 12:29:22;;;;;;;7.95;5.40;;;32.20;45.30;;;;;;21004324;28;20235;-73
2022/07/25 12:39:24;;;;;;;9.50;4.82;;;32.30;45.10;;;;;;21000681;28;20203;-72
2022/07/25 12:49:25;;;;;;;5.32;4.82;;;32.50;44.10;;;;;;21001149;28;20239;-73
2022/07/25 12:59:27;;;;;;;7.43;5.15;;;32.70;42.50;;;;;;21002296;28;20211;-73
2022/07/25 13:09:29;;;;;;;5.20;4.80;;;32.80;41.70;;;;;;21001030;28;20238;-72
2022/07/25 13:19:31;;;;;;;5.05;4.55;;;32.70;41.50;;;;;;21000103;28;20310;-72
2022/07/25 13:29:33;;;;;;;6.97;4.72;;;32.50;40.90;;;;;;20998758;28;20237;-72
2022/07/25 13:39:37;;;;;;;7.55;5.10;;;32.70;41.10;;;;;;20998298;28;20200;-72
2022/07/25 13:49:40;;;;;;;7.35;4.80;;;33.00;41.20;;;;;;20996412;28;20698;-72
2022/07/25 13:59:41;;;;;;;9.52;5.10;;;32.80;40.80;;;;;;20996327;28;20219;-72
2022/07/25 14:09:43;;;;;;;6.18;5.53;;;32.70;41.40;;;;;;21056691;28;20234;-70
2022/07/25 14:19:45;;;;;;;6.75;5.13;;;32.80;41.50;;;;;;21078882;28;20202;-71
2022/07/25 14:29:47;;;;;;;6.43;5.50;;;32.90;40.80;;;;;;21078675;28;20238;-72
2022/07/25 14:39:49;;;;;;;6.13;5.53;;;33.00;40.90;;;;;;21078070;28;20238;-71
2022/07/25 14:49:51;;;;;;;8.63;6.13;;;32.70;41.50;;;;;;21077675;28;20233;-73
2022/07/25 14:59:52;;;;;;;9.20;5.85;;;32.30;42.50;;;;;;21092056;28;20240;-72
2022/07/25 15:09:54;;;;;;;9.00;6.47;;;32.40;43.10;;;;;;21105538;28;20268;-72
2022/07/25 15:19:56;;;;;;;12.88;7.88;;;32.30;44.30;;;;;;21105103;28;20212;-72
2022/07/25 15:29:57;;;;;;;10.00;7.00;;;32.10;45.00;;;;;;21104687;28;20237;-72
2022/07/25 15:39:59;;;;;;;12.07;6.95;;;32.00;45.60;;;;;;21104539;28;20231;-73
2022/07/25 15:50:02;;;;;;;13.65;6.72;;;32.00;46.00;;;;;;21103870;28;20238;-72
2022/07/25 16:00:07;;;;;;;12.23;7.25;;;32.10;46.70;;;;;;21103503;28;20202;-71
2022/07/25 16:10:09;;;;;;;7.78;6.32;;;32.30;47.30;;;;;;21030558;28;20227;-72
2022/07/25 16:20:11;;;;;;;7.30;6.22;;;32.40;46.90;;;;;;21005981;28;20576;-70
2022/07/25 16:30:13;;;;;;;7.22;6.30;;;32.30;46.70;;;;;;21020975;28;20247;-73
2022/07/25 16:40:15;;;;;;;6.65;5.95;;;32.30;47.30;;;;;;21004806;28;20234;-70
2022/07/25 16:50:17;;;;;;;8.25;6.00;;;32.50;47.20;;;;;;21003774;28;20235;-70
2022/07/25 17:00:19;;;;;;;8.52;6.55;;;32.20;47.50;;;;;;21002835;28;20214;-72
2022/07/25 17:10:21;;;;;;;8.75;5.85;;;31.60;47.60;;;;;;21002464;28;20230;-72
2022/07/25 17:20:23;;;;;;;9.30;6.00;;;31.30;48.30;;;;;;20983558;28;20556;-71
2022/07/25 17:30:25;;;;;;;8.63;6.50;;;30.90;49.00;;;;;;21000486;28;20235;-72
2022/07/25 17:40:27;;;;;;;9.43;5.80;;;31.00;49.50;;;;;;20999921;28;20227;-71
2022/07/25 17:50:28;;;;;;;14.55;6.00;;;30.90;50.10;;;;;;20998947;28;20227;-72
2022/07/25 18:00:31;;;;;;;11.65;6.30;;;30.50;51.90;;;;;;20998138;28;20203;-73
2022/07/25 18:10:33;;;;;;;11.88;6.55;;;29.90;54.90;;;;;;21049553;28;20266;-71
2022/07/25 18:20:35;;;;;;;13.73;6.75;;;29.30;57.90;;;;;;21079165;28;20549;-73
2022/07/25 18:30:37;;;;;;;8.88;6.40;;;28.90;58.60;;;;;;21079320;28;20238;-73
2022/07/25 18:40:39;;;;;;;8.97;6.43;;;28.60;60.10;;;;;;21078929;28;20303;-74
2022/07/25 18:50:41;;;;;;;8.07;6.40;;;28.30;61.90;;;;;;21076956;28;20242;-73
2022/07/25 19:00:43;;;;;;;11.47;6.27;;;28.10;63.30;;;;;;21078329;28;20693;-72
2022/07/25 19:10:46;;;;;;;7.77;5.70;;;27.90;63.60;;;;;;21078021;28;20230;-71
2022/07/25 19:20:48;;;;;;;8.97;5.27;;;27.80;62.00;;;;;;21075687;28;20202;-71
2022/07/25 19:30:49;;;;;;;6.60;4.93;;;27.70;60.20;;;;;;21077082;28;20242;-70
2022/07/25 19:40:51;;;;;;;8.50;4.53;;;27.60;58.30;;;;;;21047852;28;20234;-73
2022/07/25 19:50:53;;;;;;;9.80;4.70;;;27.50;57.20;;;;;;21006700;28;20235;-73
2022/07/25 20:00:55;;;;;;;10.57;4.90;;;27.40;57.40;;;;;;21084440;28;20205;-73
2022/07/25 20:10:56;;;;;;;14.43;4.67;;;27.20;58.10;;;;;;21090465;28;20238;-75
2022/07/25 20:20:58;;;;;;;6.53;5.10;;;27.10;59.50;;;;;;21103495;28;20210;-74
2022/07/25 20:31:00;;;;;;;8.87;5.27;;;26.80;61.80;;;;;;21170950;28;20234;-71
2022/07/25 20:41:03;;;;;;;8.27;4.60;;;26.60;64.00;;;;;;21170262;28;20696;-69
2022/07/25 20:51:06;;;;;;;8.83;4.77;;;26.50;65.10;;;;;;21172163;28;20240;-70
2022/07/25 21:01:10;;;;;;;8.77;4.63;;;26.20;66.80;;;;;;21170877;28;20585;-71
2022/07/25 21:11:11;;;;;;;8.67;4.67;;;26.10;67.50;;;;;;21170331;28;20242;-75
2022/07/25 21:21:13;;;;;;;10.70;4.13;;;26.10;67.90;;;;;;21170221;28;20212;-73
2022/07/25 21:31:16;;;;;;;15.13;4.40;;;26.00;67.90;;;;;;21168697;28;20336;-71
2022/07/25 21:41:18;;;;;;;11.50;3.90;;;26.00;68.10;;;;;;21167789;28;20230;-73
2022/07/25 21:51:20;;;;;;;14.03;3.67;;;25.80;68.20;;;;;;21167427;28;20239;-71
2022/07/25 22:01:24;;;;;;;11.13;3.70;;;25.70;68.20;;;;;;21166522;28;20206;-70
2022/07/25 22:11:27;;;;;;;6.13;3.60;;;25.60;68.70;;;;;;21164649;28;20229;-68
2022/07/25 22:21:47;;;;;;;5.57;4.07;;;25.50;69.30;;;;;;21042103;28;20609;-70
2022/07/25 22:31:48;;;;;;;4.20;3.53;;;25.40;70.30;;;;;;20993529;28;20235;-69
2022/07/25 22:41:50;;;;;;;7.00;3.17;;;25.20;70.80;;;;;;20995505;28;20318;-70
2022/07/25 22:51:52;;;;;;;11.07;3.60;;;25.20;70.70;;;;;;20995621;28;20237;-72
2022/07/25 23:01:54;;;;;;;4.93;2.90;;;24.90;70.90;;;;;;20994820;28;20285;-73
2022/07/25 23:11:56;;;;;;;6.50;3.20;;;24.90;71.10;;;;;;20994480;28;20235;-70
2022/07/25 23:21:59;;;;;;;3.37;3.03;;;24.70;71.90;;;;;;21004631;28;20543;-71
2022/07/25 23:32:01;;;;;;;4.60;3.17;;;24.50;72.30;;;;;;21010136;28;20605;-71
2022/07/25 23:42:03;;;;;;;6.77;2.90;;;24.40;72.60;;;;;;21009156;28;20246;-71
2022/07/25 23:52:05;;;;;;;5.63;2.60;;;24.30;72.60;;;;;;21008608;28;20235;-69
